createdAt,value
2023-05-05T00:02:50.843Z,101693.05
2023-05-05T00:07:57.910Z,101696.55
2023-05-05T00:13:05.034Z,101690.61
2023-05-05T00:18:12.739Z,101703.91
2023-05-05T00:23:20.506Z,101696.27
2023-05-05T00:28:27.718Z,101699.66
2023-05-05T00:33:34.673Z,101696.52
2023-05-05T00:38:41.648Z,101696.30
2023-05-05T00:43:48.844Z,101696.80
2023-05-05T00:48:56.570Z,101697.40
2023-05-05T00:54:03.824Z,101701.86
2023-05-05T00:59:10.834Z,101697.86
2023-05-05T01:04:17.307Z,101698.48
2023-05-05T01:09:33.731Z,101700.21
2023-05-05T01:14:45.756Z,101701.30
2023-05-05T01:20:04.317Z,101697.77
2023-05-05T01:25:36.712Z,101689.22
2023-05-05T01:31:07.664Z,101692.69
2023-05-05T01:36:22.726Z,101690.45
2023-05-05T01:41:34.574Z,101689.02
2023-05-05T01:46:43.052Z,101691.00
2023-05-05T01:51:52.461Z,101688.45
2023-05-05T01:57:00.632Z,101690.59
2023-05-05T02:02:10.258Z,101692.08
2023-05-05T02:07:18.620Z,101686.55
2023-05-05T02:12:26.747Z,101688.03
2023-05-05T02:17:35.268Z,101686.37
2023-05-05T02:22:42.370Z,101689.27
2023-05-05T02:27:51.914Z,101690.62
2023-05-05T02:33:06.784Z,101692.38
2023-05-05T02:38:18.499Z,101691.33
2023-05-05T02:43:31.130Z,101683.58
2023-05-05T02:48:38.609Z,101682.25
2023-05-05T02:53:45.845Z,101692.02
2023-05-05T02:58:58.221Z,101686.92
2023-05-05T03:04:11.781Z,101686.09
2023-05-05T03:09:29.101Z,101685.14
2023-05-05T03:14:41.644Z,101687.60
2023-05-05T03:19:50.782Z,101692.52
2023-05-05T03:24:56.339Z,101698.72
2023-05-05T03:30:05.250Z,101697.84
2023-05-05T03:35:14.174Z,101696.92
2023-05-05T03:40:29.697Z,101702.83
2023-05-05T03:45:44.607Z,101708.81
2023-05-05T03:50:53.158Z,101710.11
2023-05-05T03:56:01.281Z,101708.13
2023-05-05T04:01:08.471Z,101705.66
2023-05-05T04:06:15.008Z,101703.98
2023-05-05T04:11:22.797Z,101705.36
2023-05-05T04:16:31.243Z,101712.92
2023-05-05T04:21:39.340Z,101712.89
2023-05-05T04:26:46.492Z,101714.95
2023-05-05T04:31:54.048Z,101716.94
2023-05-05T04:37:01.164Z,101725.35
2023-05-05T04:42:09.471Z,101731.10
2023-05-05T04:47:16.784Z,101740.47
2023-05-05T04:52:24.641Z,101749.59
2023-05-05T04:57:32.637Z,101752.73
2023-05-05T05:02:39.788Z,101762.98
2023-05-05T05:07:47.394Z,101770.15
2023-05-05T05:12:54.699Z,101776.67
2023-05-05T05:18:01.810Z,101783.21
2023-05-05T05:23:08.943Z,101785.20
2023-05-05T05:28:20.765Z,101783.98
2023-05-05T05:33:31.504Z,101786.39
2023-05-05T05:38:39.117Z,101788.98
2023-05-05T05:43:46.906Z,101789.98
2023-05-05T05:48:54.085Z,101789.55
2023-05-05T05:54:01.478Z,101792.15
2023-05-05T05:59:10.298Z,101783.98
2023-05-05T06:04:17.980Z,101785.34
2023-05-05T06:09:25.312Z,101784.90
2023-05-05T06:14:32.861Z,101790.27
2023-05-05T06:19:41.301Z,101796.80
2023-05-05T06:24:48.804Z,101806.09
2023-05-05T06:29:54.987Z,101811.55
2023-05-05T06:35:02.591Z,101809.47
2023-05-05T06:40:11.994Z,101808.20
2023-05-05T06:45:19.557Z,101806.80
2023-05-05T06:50:27.163Z,101813.26
2023-05-05T06:55:34.319Z,101813.93
2023-05-05T07:00:42.768Z,101811.92
2023-05-05T07:05:49.726Z,101812.91
2023-05-05T07:10:56.756Z,101816.44
2023-05-05T07:16:04.047Z,101817.59
2023-05-05T07:21:11.128Z,101819.74
2023-05-05T07:26:18.596Z,101816.35
2023-05-05T07:31:25.970Z,101821.77
2023-05-05T07:36:33.116Z,101823.94
2023-05-05T07:41:40.269Z,101818.20
2023-05-05T07:46:47.719Z,101814.59
2023-05-05T07:51:55.571Z,101818.78
2023-05-05T07:57:03.764Z,101826.20
2023-05-05T08:02:10.954Z,101827.05
2023-05-05T08:07:18.175Z,101828.42
2023-05-05T08:12:25.228Z,101833.21
2023-05-05T08:17:44.200Z,101836.29
2023-05-05T08:22:53.027Z,101837.92
2023-05-05T08:28:00.069Z,101838.44
2023-05-05T08:33:07.310Z,101842.62
2023-05-05T08:38:14.973Z,101842.58
2023-05-05T08:43:24.039Z,101841.79
2023-05-05T08:48:34.771Z,101847.43
2023-05-05T08:53:53.472Z,101849.86
2023-05-05T08:59:04.277Z,101848.59
2023-05-05T09:04:12.677Z,101850.20
2023-05-05T09:09:20.698Z,101859.52
2023-05-05T09:14:27.828Z,101859.59
2023-05-05T09:19:53.814Z,101860.27
2023-05-05T09:25:03.460Z,101855.90
2023-05-05T09:30:12.691Z,101857.73
2023-05-05T09:35:20.849Z,101861.71
2023-05-05T09:40:28.321Z,101871.23
2023-05-05T09:45:35.397Z,101864.63
2023-05-05T09:50:47.027Z,101860.20
2023-05-05T09:56:01.498Z,101860.79
2023-05-05T10:01:22.573Z,101863.97
2023-05-05T10:06:44.233Z,101866.99
2023-05-05T10:11:51.661Z,101867.63
2023-05-05T10:17:01.908Z,101862.45
2023-05-05T10:22:11.541Z,101863.46
2023-05-05T10:27:23.818Z,101862.20
2023-05-05T10:32:54.342Z,101858.15
2023-05-05T10:38:04.932Z,101852.44
2023-05-05T10:43:12.418Z,101850.19
2023-05-05T10:48:26.830Z,101854.27
2023-05-05T10:53:42.522Z,101848.48
2023-05-05T10:58:59.841Z,101847.18
2023-05-05T11:04:27.000Z,101835.32
2023-05-05T11:09:37.216Z,101831.88
2023-05-05T11:14:44.655Z,101828.85
2023-05-05T11:19:52.710Z,101823.05
2023-05-05T11:24:59.843Z,101823.11
2023-05-05T11:30:13.283Z,101817.71
2023-05-05T11:35:21.213Z,101807.60
2023-05-05T11:40:33.789Z,101808.77
2023-05-05T11:45:40.981Z,101809.96
2023-05-05T11:50:49.519Z,101804.46
2023-05-05T11:56:10.807Z,101801.33
2023-05-05T12:01:18.791Z,101798.72
2023-05-05T12:06:26.975Z,101794.91
2023-05-05T12:11:34.316Z,101790.77
2023-05-05T12:16:41.597Z,101787.24
2023-05-05T12:21:48.685Z,101779.10
2023-05-05T12:26:55.916Z,101778.30
2023-05-05T12:32:03.276Z,101780.07
2023-05-05T12:37:12.721Z,101773.39
2023-05-05T12:42:20.630Z,101772.87
2023-05-05T12:47:38.745Z,101765.77
2023-05-05T12:52:46.921Z,101761.77
2023-05-05T12:58:04.834Z,101758.88
2023-05-05T13:03:20.496Z,101755.73
2023-05-05T13:08:58.253Z,101750.25
2023-05-05T13:14:05.665Z,101750.46
2023-05-05T13:19:12.866Z,101752.34
2023-05-05T13:24:31.067Z,101746.27
2023-05-05T13:29:42.715Z,101743.98
2023-05-05T13:34:49.921Z,101743.89
2023-05-05T13:40:00.598Z,101740.32
2023-05-05T13:45:09.499Z,101734.36
2023-05-05T13:50:18.482Z,101732.38
2023-05-05T13:55:25.633Z,101732.95
2023-05-05T14:00:35.857Z,101724.59
2023-05-05T14:06:03.604Z,101721.10
2023-05-05T14:11:11.552Z,101722.83
2023-05-05T14:16:18.860Z,101723.05
2023-05-05T14:21:26.148Z,101724.77
2023-05-05T14:26:33.420Z,101719.59
2023-05-05T14:31:44.811Z,101720.29
2023-05-05T14:36:52.453Z,101725.05
2023-05-05T14:42:02.218Z,101718.80
2023-05-05T14:47:18.742Z,101713.83
2023-05-05T14:52:26.387Z,101714.13
2023-05-05T14:57:34.082Z,101710.61
2023-05-05T15:02:41.141Z,101710.96
2023-05-05T15:07:54.619Z,101709.25
2023-05-05T15:13:12.031Z,101706.79
2023-05-05T15:18:19.379Z,101705.20
2023-05-05T15:23:28.683Z,101711.31
2023-05-05T15:28:36.416Z,101715.56
2023-05-05T15:33:48.173Z,101715.90
2023-05-05T15:38:56.740Z,101715.64
2023-05-05T15:44:06.556Z,101707.33
2023-05-05T15:49:13.694Z,101709.19
2023-05-05T15:54:21.138Z,101711.23
2023-05-05T15:59:32.148Z,101722.57
2023-05-05T16:04:40.447Z,101725.39
2023-05-05T16:09:47.669Z,101722.52
2023-05-05T16:14:54.729Z,101719.02
2023-05-05T16:20:02.154Z,101719.84
2023-05-05T16:25:11.205Z,101718.66
2023-05-05T16:30:18.779Z,101717.35
2023-05-05T16:35:26.157Z,101720.77
2023-05-05T16:40:33.194Z,101720.47
2023-05-05T16:45:40.295Z,101720.98
2023-05-05T16:50:47.285Z,101717.87
2023-05-05T16:55:55.049Z,101721.91
2023-05-05T17:01:03.547Z,101729.55
2023-05-05T17:06:11.209Z,101732.15
2023-05-05T17:11:18.689Z,101734.33
2023-05-05T17:16:26.330Z,101729.77
2023-05-05T17:21:33.871Z,101734.05
2023-05-05T17:26:45.963Z,101731.99
2023-05-05T17:31:59.762Z,101737.71
2023-05-05T17:37:16.446Z,101736.76
2023-05-05T17:42:27.175Z,101737.36
2023-05-05T17:47:34.388Z,101743.58
2023-05-05T17:52:42.141Z,101745.90
2023-05-05T17:57:49.097Z,101749.90
2023-05-05T18:02:56.160Z,101743.69
2023-05-05T18:08:03.288Z,101748.85
2023-05-05T18:13:11.870Z,101748.61
2023-05-05T18:18:18.973Z,101749.08
2023-05-05T18:23:26.118Z,101754.06
2023-05-05T18:28:33.181Z,101757.98
2023-05-05T18:33:40.831Z,101762.61
2023-05-05T18:38:48.097Z,101770.19
2023-05-05T18:43:55.286Z,101774.08
2023-05-05T18:49:02.390Z,101771.77
2023-05-05T18:54:10.143Z,101774.88
2023-05-05T18:59:19.868Z,101780.65
2023-05-05T19:04:31.746Z,101780.55
2023-05-05T19:09:40.658Z,101781.14
2023-05-05T19:14:47.905Z,101780.92
2023-05-05T19:19:55.073Z,101783.44
2023-05-05T19:25:02.073Z,101785.91
2023-05-05T19:30:11.231Z,101790.48
2023-05-05T19:35:18.792Z,101790.60
2023-05-05T19:40:26.047Z,101784.27
2023-05-05T19:45:35.858Z,101785.40
2023-05-05T19:50:43.248Z,101786.51
2023-05-05T19:55:50.317Z,101789.23
2023-05-05T20:00:57.527Z,101787.86
2023-05-05T20:06:04.992Z,101776.14
2023-05-05T20:11:12.603Z,101768.11
2023-05-05T20:16:19.999Z,101770.56
2023-05-05T20:21:27.298Z,101770.18
2023-05-05T20:26:34.820Z,101766.30
2023-05-05T20:31:41.932Z,101761.92
2023-05-05T20:36:49.286Z,101761.11
2023-05-05T20:41:56.741Z,101757.17
2023-05-05T20:47:06.126Z,101755.75
2023-05-05T20:52:13.195Z,101750.83
2023-05-05T20:57:20.525Z,101747.19
2023-05-05T21:02:27.917Z,101742.68
2023-05-05T21:07:37.034Z,101744.17
2023-05-05T21:12:44.023Z,101752.60
2023-05-05T21:17:51.968Z,101750.00
2023-05-05T21:23:03.733Z,101746.03
2023-05-05T21:28:11.306Z,101749.27
2023-05-05T21:33:18.224Z,101746.55
2023-05-05T21:38:25.194Z,101749.79
2023-05-05T21:43:32.216Z,101753.95
2023-05-05T21:48:41.432Z,101744.59
2023-05-05T21:53:48.450Z,101741.66
2023-05-05T21:58:55.419Z,101741.65
2023-05-05T22:04:02.520Z,101745.85
2023-05-05T22:09:09.694Z,101742.68
2023-05-05T22:14:16.720Z,101737.20
2023-05-05T22:19:23.657Z,101726.98
2023-05-05T22:24:30.900Z,101722.52
2023-05-05T22:29:39.016Z,101714.50
2023-05-05T22:34:45.998Z,101710.23
2023-05-05T22:39:52.957Z,101711.44
2023-05-05T22:44:59.865Z,101702.83
2023-05-05T22:50:08.772Z,101696.06
2023-05-05T22:55:16.204Z,101698.80
2023-05-05T23:00:23.132Z,101693.25
2023-05-05T23:05:30.494Z,101693.96
2023-05-05T23:10:37.360Z,101692.00
2023-05-05T23:15:44.409Z,101692.27
2023-05-05T23:20:51.420Z,101694.08
2023-05-05T23:25:58.445Z,101688.73
2023-05-05T23:31:05.402Z,101691.28
2023-05-05T23:36:12.591Z,101699.38
2023-05-05T23:41:19.498Z,101691.53
2023-05-05T23:46:26.504Z,101683.82
2023-05-05T23:51:33.417Z,101689.43
2023-05-05T23:56:40.976Z,101689.33
